<?xml version="1.0" encoding="UTF-8" standalone="no" ?>
<gpx xmlns="http://www.topografix.com/GPX/1/1" xmlns:xsi="http://www.w3.org/2001/XMLSchema-instance" xsi:schemaLocation="http://www.topografix.com/GPX/1/1 http://www.topografix.com/GPX/1/1/gpx.xsd" version="1.1" creator="VisuGPX - https://www.visugpx.com">
  <metadata>
    <name>Boucle Givry Jambles Barizey Saint Denis de Vaux-16483253</name>
    <desc><![CDATA[une des 3 nouvelles randonnées balisées par le grand Chalon, à découvrir !]]></desc>
  </metadata>
  <trk>
    <name><![CDATA[Boucle Givry Jambles Barizey Saint Denis de Vaux-16483253]]></name>
    <trkseg>
      <trkpt lat="46.78298" lon="4.74527">
        <ele>221</ele>
        <time>2023-04-15T04:48:03Z</time>
      </trkpt>
      <trkpt lat="46.78309" lon="4.74493">
        <ele>221</ele>
        <time>2023-04-15T04:48:37Z</time>
      </trkpt>
      <trkpt lat="46.78262" lon="4.74468">
        <ele>222</ele>
        <time>2023-04-15T04:49:44Z</time>
      </trkpt>
      <trkpt lat="46.78271" lon="4.7445">
        <ele>222</ele>
        <time>2023-04-15T04:50:04Z</time>
      </trkpt>
      <trkpt lat="46.78275" lon="4.74433">
        <ele>222</ele>
        <time>2023-04-15T04:50:21Z</time>
      </trkpt>
      <trkpt lat="46.78291" lon="4.74395">
        <ele>223</ele>
        <time>2023-04-15T04:51:02Z</time>
      </trkpt>
      <trkpt lat="46.78318" lon="4.74318">
        <ele>225</ele>
        <time>2023-04-15T04:52:21Z</time>
      </trkpt>
      <trkpt lat="46.78341" lon="4.74206">
        <ele>224</ele>
        <time>2023-04-15T04:54:08Z</time>
      </trkpt>
      <trkpt lat="46.78354" lon="4.74173">
        <ele>224</ele>
        <time>2023-04-15T04:54:42Z</time>
      </trkpt>
      <trkpt lat="46.78353" lon="4.74165">
        <ele>224</ele>
        <time>2023-04-15T04:54:50Z</time>
      </trkpt>
      <trkpt lat="46.78358" lon="4.7416">
        <ele>224</ele>
        <time>2023-04-15T04:54:58Z</time>
      </trkpt>
      <trkpt lat="46.78371" lon="4.74113">
        <ele>225</ele>
        <time>2023-04-15T04:55:44Z</time>
      </trkpt>
      <trkpt lat="46.78421" lon="4.73901">
        <ele>226</ele>
        <time>2023-04-15T04:59:09Z</time>
      </trkpt>
      <trkpt lat="46.78438" lon="4.73889">
        <ele>227</ele>
        <time>2023-04-15T04:59:34Z</time>
      </trkpt>
      <trkpt lat="46.78454" lon="4.73858">
        <ele>228</ele>
        <time>2023-04-15T05:00:10Z</time>
      </trkpt>
      <trkpt lat="46.78474" lon="4.73788">
        <ele>229</ele>
        <time>2023-04-15T05:01:19Z</time>
      </trkpt>
      <trkpt lat="46.7847" lon="4.73769">
        <ele>229</ele>
        <time>2023-04-15T05:01:37Z</time>
      </trkpt>
      <trkpt lat="46.78427" lon="4.73719">
        <ele>229</ele>
        <time>2023-04-15T05:02:51Z</time>
      </trkpt>
      <trkpt lat="46.78423" lon="4.73706">
        <ele>230</ele>
        <time>2023-04-15T05:03:04Z</time>
      </trkpt>
      <trkpt lat="46.78423" lon="4.73671">
        <ele>231</ele>
        <time>2023-04-15T05:03:36Z</time>
      </trkpt>
      <trkpt lat="46.78382" lon="4.7358">
        <ele>234</ele>
        <time>2023-04-15T05:05:15Z</time>
      </trkpt>
      <trkpt lat="46.78371" lon="4.73563">
        <ele>235</ele>
        <time>2023-04-15T05:05:36Z</time>
      </trkpt>
      <trkpt lat="46.78325" lon="4.73523">
        <ele>236</ele>
        <time>2023-04-15T05:06:48Z</time>
      </trkpt>
      <trkpt lat="46.78279" lon="4.73463">
        <ele>239</ele>
        <time>2023-04-15T05:08:10Z</time>
      </trkpt>
      <trkpt lat="46.78222" lon="4.73414">
        <ele>239</ele>
        <time>2023-04-15T05:09:39Z</time>
      </trkpt>
      <trkpt lat="46.78174" lon="4.73369">
        <ele>239</ele>
        <time>2023-04-15T05:10:55Z</time>
      </trkpt>
      <trkpt lat="46.78167" lon="4.73359">
        <ele>239</ele>
        <time>2023-04-15T05:11:08Z</time>
      </trkpt>
      <trkpt lat="46.78161" lon="4.73316">
        <ele>239</ele>
        <time>2023-04-15T05:11:48Z</time>
      </trkpt>
      <trkpt lat="46.78156" lon="4.73305">
        <ele>240</ele>
        <time>2023-04-15T05:12:00Z</time>
      </trkpt>
      <trkpt lat="46.78112" lon="4.73251">
        <ele>238</ele>
        <time>2023-04-15T05:13:17Z</time>
      </trkpt>
      <trkpt lat="46.78064" lon="4.73186">
        <ele>235</ele>
        <time>2023-04-15T05:14:44Z</time>
      </trkpt>
      <trkpt lat="46.7804" lon="4.73162">
        <ele>235</ele>
        <time>2023-04-15T05:15:23Z</time>
      </trkpt>
      <trkpt lat="46.77994" lon="4.73094">
        <ele>238</ele>
        <time>2023-04-15T05:16:50Z</time>
      </trkpt>
      <trkpt lat="46.77979" lon="4.73091">
        <ele>238</ele>
        <time>2023-04-15T05:17:10Z</time>
      </trkpt>
      <trkpt lat="46.77934" lon="4.72991">
        <ele>242</ele>
        <time>2023-04-15T05:19:00Z</time>
      </trkpt>
      <trkpt lat="46.77927" lon="4.72972">
        <ele>243</ele>
        <time>2023-04-15T05:19:19Z</time>
      </trkpt>
      <trkpt lat="46.77928" lon="4.72954">
        <ele>244</ele>
        <time>2023-04-15T05:19:36Z</time>
      </trkpt>
      <trkpt lat="46.77859" lon="4.72895">
        <ele>245</ele>
        <time>2023-04-15T05:21:23Z</time>
      </trkpt>
      <trkpt lat="46.77831" lon="4.72863">
        <ele>245</ele>
        <time>2023-04-15T05:22:10Z</time>
      </trkpt>
      <trkpt lat="46.77779" lon="4.72747">
        <ele>247</ele>
        <time>2023-04-15T05:24:17Z</time>
      </trkpt>
      <trkpt lat="46.77755" lon="4.72713">
        <ele>248</ele>
        <time>2023-04-15T05:25:01Z</time>
      </trkpt>
      <trkpt lat="46.77746" lon="4.72724">
        <ele>246</ele>
        <time>2023-04-15T05:25:17Z</time>
      </trkpt>
      <trkpt lat="46.77718" lon="4.72773">
        <ele>243</ele>
        <time>2023-04-15T05:26:15Z</time>
      </trkpt>
      <trkpt lat="46.7769" lon="4.72815">
        <ele>239</ele>
        <time>2023-04-15T05:27:09Z</time>
      </trkpt>
      <trkpt lat="46.7765" lon="4.72912">
        <ele>234</ele>
        <time>2023-04-15T05:28:52Z</time>
      </trkpt>
      <trkpt lat="46.77637" lon="4.72916">
        <ele>234</ele>
        <time>2023-04-15T05:29:10Z</time>
      </trkpt>
      <trkpt lat="46.77601" lon="4.72908">
        <ele>235</ele>
        <time>2023-04-15T05:29:59Z</time>
      </trkpt>
      <trkpt lat="46.77593" lon="4.72911">
        <ele>235</ele>
        <time>2023-04-15T05:30:10Z</time>
      </trkpt>
      <trkpt lat="46.77582" lon="4.72919">
        <ele>235</ele>
        <time>2023-04-15T05:30:26Z</time>
      </trkpt>
      <trkpt lat="46.77547" lon="4.72983">
        <ele>236</ele>
        <time>2023-04-15T05:31:41Z</time>
      </trkpt>
      <trkpt lat="46.77517" lon="4.72958">
        <ele>236</ele>
        <time>2023-04-15T05:32:27Z</time>
      </trkpt>
      <trkpt lat="46.77503" lon="4.72961">
        <ele>236</ele>
        <time>2023-04-15T05:32:46Z</time>
      </trkpt>
      <trkpt lat="46.77452" lon="4.72947">
        <ele>237</ele>
        <time>2023-04-15T05:33:55Z</time>
      </trkpt>
      <trkpt lat="46.77447" lon="4.72949">
        <ele>237</ele>
        <time>2023-04-15T05:34:02Z</time>
      </trkpt>
      <trkpt lat="46.77438" lon="4.7296">
        <ele>237</ele>
        <time>2023-04-15T05:34:18Z</time>
      </trkpt>
      <trkpt lat="46.77423" lon="4.72986">
        <ele>236</ele>
        <time>2023-04-15T05:34:49Z</time>
      </trkpt>
      <trkpt lat="46.77418" lon="4.72988">
        <ele>236</ele>
        <time>2023-04-15T05:34:56Z</time>
      </trkpt>
      <trkpt lat="46.77403" lon="4.73024">
        <ele>235</ele>
        <time>2023-04-15T05:35:34Z</time>
      </trkpt>
      <trkpt lat="46.77375" lon="4.73115">
        <ele>233</ele>
        <time>2023-04-15T05:37:05Z</time>
      </trkpt>
      <trkpt lat="46.77304" lon="4.73307">
        <ele>227</ele>
        <time>2023-04-15T05:40:25Z</time>
      </trkpt>
      <trkpt lat="46.77213" lon="4.73249">
        <ele>226</ele>
        <time>2023-04-15T05:42:37Z</time>
      </trkpt>
      <trkpt lat="46.77207" lon="4.73243">
        <ele>226</ele>
        <time>2023-04-15T05:42:47Z</time>
      </trkpt>
      <trkpt lat="46.77198" lon="4.73232">
        <ele>226</ele>
        <time>2023-04-15T05:43:03Z</time>
      </trkpt>
      <trkpt lat="46.77189" lon="4.73215">
        <ele>226</ele>
        <time>2023-04-15T05:43:22Z</time>
      </trkpt>
      <trkpt lat="46.77161" lon="4.73147">
        <ele>228</ele>
        <time>2023-04-15T05:44:35Z</time>
      </trkpt>
      <trkpt lat="46.77142" lon="4.7312">
        <ele>228</ele>
        <time>2023-04-15T05:45:10Z</time>
      </trkpt>
      <trkpt lat="46.77114" lon="4.7305">
        <ele>230</ele>
        <time>2023-04-15T05:46:24Z</time>
      </trkpt>
      <trkpt lat="46.77103" lon="4.73038">
        <ele>231</ele>
        <time>2023-04-15T05:46:43Z</time>
      </trkpt>
      <trkpt lat="46.77027" lon="4.72973">
        <ele>231</ele>
        <time>2023-04-15T05:48:40Z</time>
      </trkpt>
      <trkpt lat="46.77022" lon="4.72966">
        <ele>231</ele>
        <time>2023-04-15T05:48:49Z</time>
      </trkpt>
      <trkpt lat="46.7701" lon="4.72961">
        <ele>231</ele>
        <time>2023-04-15T05:49:06Z</time>
      </trkpt>
      <trkpt lat="46.76895" lon="4.7287">
        <ele>230</ele>
        <time>2023-04-15T05:52:01Z</time>
      </trkpt>
      <trkpt lat="46.76778" lon="4.72767">
        <ele>234</ele>
        <time>2023-04-15T05:55:03Z</time>
      </trkpt>
      <trkpt lat="46.76655" lon="4.72653">
        <ele>241</ele>
        <time>2023-04-15T05:58:17Z</time>
      </trkpt>
      <trkpt lat="46.76641" lon="4.72642">
        <ele>242</ele>
        <time>2023-04-15T05:58:39Z</time>
      </trkpt>
      <trkpt lat="46.76625" lon="4.72635">
        <ele>242</ele>
        <time>2023-04-15T05:59:01Z</time>
      </trkpt>
      <trkpt lat="46.7656" lon="4.72582">
        <ele>245</ele>
        <time>2023-04-15T06:00:40Z</time>
      </trkpt>
      <trkpt lat="46.76501" lon="4.72591">
        <ele>245</ele>
        <time>2023-04-15T06:01:59Z</time>
      </trkpt>
      <trkpt lat="46.7648" lon="4.72586">
        <ele>244</ele>
        <time>2023-04-15T06:02:28Z</time>
      </trkpt>
      <trkpt lat="46.76444" lon="4.72562">
        <ele>244</ele>
        <time>2023-04-15T06:03:21Z</time>
      </trkpt>
      <trkpt lat="46.76397" lon="4.72524">
        <ele>243</ele>
        <time>2023-04-15T06:04:32Z</time>
      </trkpt>
      <trkpt lat="46.76402" lon="4.72509">
        <ele>243</ele>
        <time>2023-04-15T06:04:48Z</time>
      </trkpt>
      <trkpt lat="46.7641" lon="4.72505">
        <ele>244</ele>
        <time>2023-04-15T06:04:59Z</time>
      </trkpt>
      <trkpt lat="46.76427" lon="4.7251">
        <ele>244</ele>
        <time>2023-04-15T06:05:22Z</time>
      </trkpt>
      <trkpt lat="46.76451" lon="4.72513">
        <ele>245</ele>
        <time>2023-04-15T06:05:54Z</time>
      </trkpt>
      <trkpt lat="46.76469" lon="4.725">
        <ele>246</ele>
        <time>2023-04-15T06:06:21Z</time>
      </trkpt>
      <trkpt lat="46.76475" lon="4.72491">
        <ele>246</ele>
        <time>2023-04-15T06:06:32Z</time>
      </trkpt>
      <trkpt lat="46.7649" lon="4.72455">
        <ele>247</ele>
        <time>2023-04-15T06:07:11Z</time>
      </trkpt>
      <trkpt lat="46.76517" lon="4.72355">
        <ele>247</ele>
        <time>2023-04-15T06:08:49Z</time>
      </trkpt>
      <trkpt lat="46.76533" lon="4.7232">
        <ele>247</ele>
        <time>2023-04-15T06:09:28Z</time>
      </trkpt>
      <trkpt lat="46.76591" lon="4.72206">
        <ele>247</ele>
        <time>2023-04-15T06:11:37Z</time>
      </trkpt>
      <trkpt lat="46.76614" lon="4.72177">
        <ele>248</ele>
        <time>2023-04-15T06:12:18Z</time>
      </trkpt>
      <trkpt lat="46.76628" lon="4.72173">
        <ele>249</ele>
        <time>2023-04-15T06:12:37Z</time>
      </trkpt>
      <trkpt lat="46.76654" lon="4.72155">
        <ele>249</ele>
        <time>2023-04-15T06:13:15Z</time>
      </trkpt>
      <trkpt lat="46.76654" lon="4.72149">
        <ele>249</ele>
        <time>2023-04-15T06:13:21Z</time>
      </trkpt>
      <trkpt lat="46.76685" lon="4.72059">
        <ele>249</ele>
        <time>2023-04-15T06:14:53Z</time>
      </trkpt>
      <trkpt lat="46.76708" lon="4.72018">
        <ele>249</ele>
        <time>2023-04-15T06:15:41Z</time>
      </trkpt>
      <trkpt lat="46.7671" lon="4.72009">
        <ele>249</ele>
        <time>2023-04-15T06:15:50Z</time>
      </trkpt>
      <trkpt lat="46.76687" lon="4.71912">
        <ele>247</ele>
        <time>2023-04-15T06:17:24Z</time>
      </trkpt>
      <trkpt lat="46.76689" lon="4.71877">
        <ele>245</ele>
        <time>2023-04-15T06:17:56Z</time>
      </trkpt>
      <trkpt lat="46.767" lon="4.71824">
        <ele>243</ele>
        <time>2023-04-15T06:18:47Z</time>
      </trkpt>
      <trkpt lat="46.767" lon="4.71805">
        <ele>242</ele>
        <time>2023-04-15T06:19:04Z</time>
      </trkpt>
      <trkpt lat="46.76687" lon="4.71734">
        <ele>240</ele>
        <time>2023-04-15T06:20:11Z</time>
      </trkpt>
      <trkpt lat="46.76687" lon="4.71716">
        <ele>240</ele>
        <time>2023-04-15T06:20:28Z</time>
      </trkpt>
      <trkpt lat="46.76693" lon="4.71703">
        <ele>240</ele>
        <time>2023-04-15T06:20:42Z</time>
      </trkpt>
      <trkpt lat="46.76744" lon="4.71638">
        <ele>244</ele>
        <time>2023-04-15T06:22:12Z</time>
      </trkpt>
      <trkpt lat="46.76732" lon="4.71635">
        <ele>243</ele>
        <time>2023-04-15T06:22:29Z</time>
      </trkpt>
      <trkpt lat="46.76699" lon="4.71594">
        <ele>241</ele>
        <time>2023-04-15T06:23:26Z</time>
      </trkpt>
      <trkpt lat="46.76691" lon="4.71577">
        <ele>240</ele>
        <time>2023-04-15T06:23:45Z</time>
      </trkpt>
      <trkpt lat="46.76689" lon="4.71563">
        <ele>240</ele>
        <time>2023-04-15T06:23:58Z</time>
      </trkpt>
      <trkpt lat="46.76659" lon="4.71547">
        <ele>238</ele>
        <time>2023-04-15T06:24:41Z</time>
      </trkpt>
      <trkpt lat="46.7665" lon="4.71545">
        <ele>238</ele>
        <time>2023-04-15T06:24:53Z</time>
      </trkpt>
      <trkpt lat="46.76633" lon="4.71547">
        <ele>238</ele>
        <time>2023-04-15T06:25:16Z</time>
      </trkpt>
      <trkpt lat="46.76615" lon="4.71536">
        <ele>239</ele>
        <time>2023-04-15T06:25:42Z</time>
      </trkpt>
      <trkpt lat="46.76594" lon="4.71496">
        <ele>241</ele>
        <time>2023-04-15T06:26:28Z</time>
      </trkpt>
      <trkpt lat="46.76554" lon="4.71448">
        <ele>246</ele>
        <time>2023-04-15T06:27:37Z</time>
      </trkpt>
      <trkpt lat="46.76526" lon="4.71399">
        <ele>252</ele>
        <time>2023-04-15T06:28:35Z</time>
      </trkpt>
      <trkpt lat="46.76488" lon="4.71347">
        <ele>261</ele>
        <time>2023-04-15T06:29:45Z</time>
      </trkpt>
      <trkpt lat="46.76473" lon="4.71332">
        <ele>264</ele>
        <time>2023-04-15T06:30:09Z</time>
      </trkpt>
      <trkpt lat="46.76469" lon="4.7133">
        <ele>265</ele>
        <time>2023-04-15T06:30:15Z</time>
      </trkpt>
      <trkpt lat="46.7646" lon="4.71332">
        <ele>265</ele>
        <time>2023-04-15T06:30:27Z</time>
      </trkpt>
      <trkpt lat="46.76415" lon="4.71357">
        <ele>267</ele>
        <time>2023-04-15T06:31:31Z</time>
      </trkpt>
      <trkpt lat="46.76402" lon="4.7136">
        <ele>267</ele>
        <time>2023-04-15T06:31:49Z</time>
      </trkpt>
      <trkpt lat="46.76382" lon="4.71358">
        <ele>268</ele>
        <time>2023-04-15T06:32:16Z</time>
      </trkpt>
      <trkpt lat="46.7631" lon="4.71321">
        <ele>271</ele>
        <time>2023-04-15T06:33:57Z</time>
      </trkpt>
      <trkpt lat="46.76238" lon="4.71291">
        <ele>271</ele>
        <time>2023-04-15T06:35:37Z</time>
      </trkpt>
      <trkpt lat="46.76232" lon="4.71286">
        <ele>271</ele>
        <time>2023-04-15T06:35:47Z</time>
      </trkpt>
      <trkpt lat="46.76252" lon="4.71286">
        <ele>273</ele>
        <time>2023-04-15T06:36:13Z</time>
      </trkpt>
      <trkpt lat="46.76275" lon="4.7129">
        <ele>273</ele>
        <time>2023-04-15T06:36:44Z</time>
      </trkpt>
      <trkpt lat="46.76302" lon="4.71276">
        <ele>275</ele>
        <time>2023-04-15T06:37:22Z</time>
      </trkpt>
      <trkpt lat="46.76315" lon="4.7126">
        <ele>277</ele>
        <time>2023-04-15T06:37:45Z</time>
      </trkpt>
      <trkpt lat="46.76329" lon="4.7122">
        <ele>280</ele>
        <time>2023-04-15T06:38:26Z</time>
      </trkpt>
      <trkpt lat="46.76337" lon="4.71181">
        <ele>283</ele>
        <time>2023-04-15T06:39:03Z</time>
      </trkpt>
      <trkpt lat="46.76337" lon="4.71171">
        <ele>284</ele>
        <time>2023-04-15T06:39:12Z</time>
      </trkpt>
      <trkpt lat="46.76333" lon="4.71152">
        <ele>285</ele>
        <time>2023-04-15T06:39:31Z</time>
      </trkpt>
      <trkpt lat="46.7631" lon="4.71102">
        <ele>288</ele>
        <time>2023-04-15T06:40:26Z</time>
      </trkpt>
      <trkpt lat="46.76305" lon="4.71082">
        <ele>289</ele>
        <time>2023-04-15T06:40:45Z</time>
      </trkpt>
      <trkpt lat="46.76322" lon="4.71013">
        <ele>293</ele>
        <time>2023-04-15T06:41:52Z</time>
      </trkpt>
      <trkpt lat="46.76334" lon="4.70924">
        <ele>300</ele>
        <time>2023-04-15T06:43:15Z</time>
      </trkpt>
      <trkpt lat="46.76324" lon="4.7091">
        <ele>300</ele>
        <time>2023-04-15T06:43:34Z</time>
      </trkpt>
      <trkpt lat="46.76308" lon="4.70894">
        <ele>299</ele>
        <time>2023-04-15T06:43:59Z</time>
      </trkpt>
      <trkpt lat="46.76275" lon="4.70876">
        <ele>298</ele>
        <time>2023-04-15T06:44:46Z</time>
      </trkpt>
      <trkpt lat="46.76247" lon="4.70852">
        <ele>298</ele>
        <time>2023-04-15T06:45:30Z</time>
      </trkpt>
      <trkpt lat="46.76237" lon="4.7084">
        <ele>298</ele>
        <time>2023-04-15T06:45:47Z</time>
      </trkpt>
      <trkpt lat="46.76206" lon="4.70788">
        <ele>297</ele>
        <time>2023-04-15T06:46:50Z</time>
      </trkpt>
      <trkpt lat="46.76194" lon="4.70758">
        <ele>297</ele>
        <time>2023-04-15T06:47:22Z</time>
      </trkpt>
      <trkpt lat="46.762" lon="4.70751">
        <ele>298</ele>
        <time>2023-04-15T06:47:32Z</time>
      </trkpt>
      <trkpt lat="46.76204" lon="4.70729">
        <ele>298</ele>
        <time>2023-04-15T06:47:53Z</time>
      </trkpt>
      <trkpt lat="46.76217" lon="4.70721">
        <ele>300</ele>
        <time>2023-04-15T06:48:12Z</time>
      </trkpt>
      <trkpt lat="46.76257" lon="4.70718">
        <ele>307</ele>
        <time>2023-04-15T06:49:05Z</time>
      </trkpt>
      <trkpt lat="46.76298" lon="4.70706">
        <ele>311</ele>
        <time>2023-04-15T06:50:01Z</time>
      </trkpt>
      <trkpt lat="46.76318" lon="4.70713">
        <ele>313</ele>
        <time>2023-04-15T06:50:28Z</time>
      </trkpt>
      <trkpt lat="46.76324" lon="4.70712">
        <ele>314</ele>
        <time>2023-04-15T06:50:37Z</time>
      </trkpt>
      <trkpt lat="46.76337" lon="4.70693">
        <ele>316</ele>
        <time>2023-04-15T06:51:01Z</time>
      </trkpt>
      <trkpt lat="46.76341" lon="4.70679">
        <ele>316</ele>
        <time>2023-04-15T06:51:15Z</time>
      </trkpt>
      <trkpt lat="46.7635" lon="4.70672">
        <ele>317</ele>
        <time>2023-04-15T06:51:29Z</time>
      </trkpt>
      <trkpt lat="46.76358" lon="4.7066">
        <ele>317</ele>
        <time>2023-04-15T06:51:44Z</time>
      </trkpt>
      <trkpt lat="46.76386" lon="4.7063">
        <ele>317</ele>
        <time>2023-04-15T06:52:30Z</time>
      </trkpt>
      <trkpt lat="46.76407" lon="4.70615">
        <ele>318</ele>
        <time>2023-04-15T06:53:01Z</time>
      </trkpt>
      <trkpt lat="46.76431" lon="4.70602">
        <ele>316</ele>
        <time>2023-04-15T06:53:36Z</time>
      </trkpt>
      <trkpt lat="46.76454" lon="4.70559">
        <ele>316</ele>
        <time>2023-04-15T06:54:25Z</time>
      </trkpt>
      <trkpt lat="46.76489" lon="4.70504">
        <ele>317</ele>
        <time>2023-04-15T06:55:34Z</time>
      </trkpt>
      <trkpt lat="46.76504" lon="4.70489">
        <ele>317</ele>
        <time>2023-04-15T06:55:58Z</time>
      </trkpt>
      <trkpt lat="46.76527" lon="4.70476">
        <ele>316</ele>
        <time>2023-04-15T06:56:31Z</time>
      </trkpt>
      <trkpt lat="46.76584" lon="4.70455">
        <ele>311</ele>
        <time>2023-04-15T06:57:50Z</time>
      </trkpt>
      <trkpt lat="46.766" lon="4.70443">
        <ele>308</ele>
        <time>2023-04-15T06:58:14Z</time>
      </trkpt>
      <trkpt lat="46.76643" lon="4.70406">
        <ele>300</ele>
        <time>2023-04-15T06:59:20Z</time>
      </trkpt>
      <trkpt lat="46.76649" lon="4.70398">
        <ele>299</ele>
        <time>2023-04-15T06:59:31Z</time>
      </trkpt>
      <trkpt lat="46.7671" lon="4.70342">
        <ele>288</ele>
        <time>2023-04-15T07:01:07Z</time>
      </trkpt>
      <trkpt lat="46.76732" lon="4.70313">
        <ele>285</ele>
        <time>2023-04-15T07:01:47Z</time>
      </trkpt>
      <trkpt lat="46.76801" lon="4.70262">
        <ele>276</ele>
        <time>2023-04-15T07:03:30Z</time>
      </trkpt>
      <trkpt lat="46.76837" lon="4.70215">
        <ele>274</ele>
        <time>2023-04-15T07:04:34Z</time>
      </trkpt>
      <trkpt lat="46.76887" lon="4.70169">
        <ele>269</ele>
        <time>2023-04-15T07:05:53Z</time>
      </trkpt>
      <trkpt lat="46.76897" lon="4.70173">
        <ele>268</ele>
        <time>2023-04-15T07:06:07Z</time>
      </trkpt>
      <trkpt lat="46.76905" lon="4.70185">
        <ele>266</ele>
        <time>2023-04-15T07:06:22Z</time>
      </trkpt>
      <trkpt lat="46.76929" lon="4.70121">
        <ele>269</ele>
        <time>2023-04-15T07:07:29Z</time>
      </trkpt>
      <trkpt lat="46.76931" lon="4.70033">
        <ele>276</ele>
        <time>2023-04-15T07:08:50Z</time>
      </trkpt>
      <trkpt lat="46.76946" lon="4.69948">
        <ele>279</ele>
        <time>2023-04-15T07:10:10Z</time>
      </trkpt>
      <trkpt lat="46.76946" lon="4.69933">
        <ele>280</ele>
        <time>2023-04-15T07:10:24Z</time>
      </trkpt>
      <trkpt lat="46.76923" lon="4.69824">
        <ele>288</ele>
        <time>2023-04-15T07:12:08Z</time>
      </trkpt>
      <trkpt lat="46.76918" lon="4.69784">
        <ele>290</ele>
        <time>2023-04-15T07:12:45Z</time>
      </trkpt>
      <trkpt lat="46.76921" lon="4.69764">
        <ele>290</ele>
        <time>2023-04-15T07:13:04Z</time>
      </trkpt>
      <trkpt lat="46.76929" lon="4.69758">
        <ele>289</ele>
        <time>2023-04-15T07:13:16Z</time>
      </trkpt>
      <trkpt lat="46.76967" lon="4.69741">
        <ele>284</ele>
        <time>2023-04-15T07:14:09Z</time>
      </trkpt>
      <trkpt lat="46.76986" lon="4.69736">
        <ele>281</ele>
        <time>2023-04-15T07:14:35Z</time>
      </trkpt>
      <trkpt lat="46.77003" lon="4.69736">
        <ele>279</ele>
        <time>2023-04-15T07:14:57Z</time>
      </trkpt>
      <trkpt lat="46.77046" lon="4.69746">
        <ele>274</ele>
        <time>2023-04-15T07:15:55Z</time>
      </trkpt>
      <trkpt lat="46.77057" lon="4.69747">
        <ele>273</ele>
        <time>2023-04-15T07:16:10Z</time>
      </trkpt>
      <trkpt lat="46.7707" lon="4.69743">
        <ele>272</ele>
        <time>2023-04-15T07:16:28Z</time>
      </trkpt>
      <trkpt lat="46.77155" lon="4.69753">
        <ele>265</ele>
        <time>2023-04-15T07:18:22Z</time>
      </trkpt>
      <trkpt lat="46.77158" lon="4.69752">
        <ele>265</ele>
        <time>2023-04-15T07:18:26Z</time>
      </trkpt>
      <trkpt lat="46.77183" lon="4.69717">
        <ele>266</ele>
        <time>2023-04-15T07:19:12Z</time>
      </trkpt>
      <trkpt lat="46.77191" lon="4.69696">
        <ele>268</ele>
        <time>2023-04-15T07:19:34Z</time>
      </trkpt>
      <trkpt lat="46.77219" lon="4.69462">
        <ele>273</ele>
        <time>2023-04-15T07:23:11Z</time>
      </trkpt>
      <trkpt lat="46.77219" lon="4.69451">
        <ele>274</ele>
        <time>2023-04-15T07:23:21Z</time>
      </trkpt>
      <trkpt lat="46.77202" lon="4.69393">
        <ele>276</ele>
        <time>2023-04-15T07:24:19Z</time>
      </trkpt>
      <trkpt lat="46.77181" lon="4.69389">
        <ele>276</ele>
        <time>2023-04-15T07:24:47Z</time>
      </trkpt>
      <trkpt lat="46.7717" lon="4.69382">
        <ele>276</ele>
        <time>2023-04-15T07:25:03Z</time>
      </trkpt>
      <trkpt lat="46.77148" lon="4.69375">
        <ele>279</ele>
        <time>2023-04-15T07:25:33Z</time>
      </trkpt>
      <trkpt lat="46.77103" lon="4.69369">
        <ele>284</ele>
        <time>2023-04-15T07:26:33Z</time>
      </trkpt>
      <trkpt lat="46.7708" lon="4.69283">
        <ele>287</ele>
        <time>2023-04-15T07:27:58Z</time>
      </trkpt>
      <trkpt lat="46.77072" lon="4.69265">
        <ele>288</ele>
        <time>2023-04-15T07:28:17Z</time>
      </trkpt>
      <trkpt lat="46.77065" lon="4.69256">
        <ele>288</ele>
        <time>2023-04-15T07:28:30Z</time>
      </trkpt>
      <trkpt lat="46.77021" lon="4.69213">
        <ele>290</ele>
        <time>2023-04-15T07:29:40Z</time>
      </trkpt>
      <trkpt lat="46.76956" lon="4.69158">
        <ele>295</ele>
        <time>2023-04-15T07:31:21Z</time>
      </trkpt>
      <trkpt lat="46.76926" lon="4.6915">
        <ele>298</ele>
        <time>2023-04-15T07:32:01Z</time>
      </trkpt>
      <trkpt lat="46.76894" lon="4.69135">
        <ele>301</ele>
        <time>2023-04-15T07:32:46Z</time>
      </trkpt>
      <trkpt lat="46.76874" lon="4.69101">
        <ele>303</ele>
        <time>2023-04-15T07:33:27Z</time>
      </trkpt>
      <trkpt lat="46.76863" lon="4.69073">
        <ele>304</ele>
        <time>2023-04-15T07:33:57Z</time>
      </trkpt>
      <trkpt lat="46.7685" lon="4.69054">
        <ele>305</ele>
        <time>2023-04-15T07:34:21Z</time>
      </trkpt>
      <trkpt lat="46.76832" lon="4.69017">
        <ele>306</ele>
        <time>2023-04-15T07:35:03Z</time>
      </trkpt>
      <trkpt lat="46.76805" lon="4.68925">
        <ele>310</ele>
        <time>2023-04-15T07:36:34Z</time>
      </trkpt>
      <trkpt lat="46.76777" lon="4.68878">
        <ele>313</ele>
        <time>2023-04-15T07:37:31Z</time>
      </trkpt>
      <trkpt lat="46.76771" lon="4.6886">
        <ele>314</ele>
        <time>2023-04-15T07:37:49Z</time>
      </trkpt>
      <trkpt lat="46.76751" lon="4.6882">
        <ele>315</ele>
        <time>2023-04-15T07:38:35Z</time>
      </trkpt>
      <trkpt lat="46.76713" lon="4.6873">
        <ele>320</ele>
        <time>2023-04-15T07:40:11Z</time>
      </trkpt>
      <trkpt lat="46.76708" lon="4.68618">
        <ele>327</ele>
        <time>2023-04-15T07:41:54Z</time>
      </trkpt>
      <trkpt lat="46.767" lon="4.6854">
        <ele>330</ele>
        <time>2023-04-15T07:43:06Z</time>
      </trkpt>
      <trkpt lat="46.767" lon="4.68511">
        <ele>331</ele>
        <time>2023-04-15T07:43:33Z</time>
      </trkpt>
      <trkpt lat="46.76661" lon="4.68408">
        <ele>334</ele>
        <time>2023-04-15T07:45:20Z</time>
      </trkpt>
      <trkpt lat="46.76654" lon="4.68377">
        <ele>335</ele>
        <time>2023-04-15T07:45:50Z</time>
      </trkpt>
      <trkpt lat="46.76623" lon="4.68231">
        <ele>345</ele>
        <time>2023-04-15T07:48:10Z</time>
      </trkpt>
      <trkpt lat="46.76608" lon="4.68099">
        <ele>351</ele>
        <time>2023-04-15T07:50:12Z</time>
      </trkpt>
      <trkpt lat="46.7659" lon="4.68055">
        <ele>351</ele>
        <time>2023-04-15T07:50:59Z</time>
      </trkpt>
      <trkpt lat="46.76567" lon="4.68029">
        <ele>353</ele>
        <time>2023-04-15T07:51:38Z</time>
      </trkpt>
      <trkpt lat="46.76528" lon="4.67971">
        <ele>356</ele>
        <time>2023-04-15T07:52:52Z</time>
      </trkpt>
      <trkpt lat="46.76517" lon="4.67934">
        <ele>354</ele>
        <time>2023-04-15T07:53:29Z</time>
      </trkpt>
      <trkpt lat="46.76513" lon="4.67862">
        <ele>350</ele>
        <time>2023-04-15T07:54:35Z</time>
      </trkpt>
      <trkpt lat="46.76513" lon="4.67797">
        <ele>348</ele>
        <time>2023-04-15T07:55:34Z</time>
      </trkpt>
      <trkpt lat="46.76525" lon="4.6775">
        <ele>347</ele>
        <time>2023-04-15T07:56:20Z</time>
      </trkpt>
      <trkpt lat="46.76539" lon="4.67739">
        <ele>348</ele>
        <time>2023-04-15T07:56:41Z</time>
      </trkpt>
      <trkpt lat="46.76578" lon="4.67735">
        <ele>349</ele>
        <time>2023-04-15T07:57:33Z</time>
      </trkpt>
      <trkpt lat="46.76607" lon="4.67724">
        <ele>350</ele>
        <time>2023-04-15T07:58:13Z</time>
      </trkpt>
      <trkpt lat="46.76613" lon="4.67717">
        <ele>350</ele>
        <time>2023-04-15T07:58:24Z</time>
      </trkpt>
      <trkpt lat="46.7664" lon="4.67665">
        <ele>354</ele>
        <time>2023-04-15T07:59:23Z</time>
      </trkpt>
      <trkpt lat="46.76712" lon="4.67395">
        <ele>366</ele>
        <time>2023-04-15T08:03:48Z</time>
      </trkpt>
      <trkpt lat="46.76723" lon="4.67386">
        <ele>366</ele>
        <time>2023-04-15T08:04:05Z</time>
      </trkpt>
      <trkpt lat="46.76716" lon="4.67378">
        <ele>366</ele>
        <time>2023-04-15T08:04:17Z</time>
      </trkpt>
      <trkpt lat="46.76727" lon="4.67322">
        <ele>369</ele>
        <time>2023-04-15T08:05:10Z</time>
      </trkpt>
      <trkpt lat="46.76781" lon="4.67181">
        <ele>377</ele>
        <time>2023-04-15T08:07:38Z</time>
      </trkpt>
      <trkpt lat="46.76798" lon="4.67122">
        <ele>381</ele>
        <time>2023-04-15T08:08:36Z</time>
      </trkpt>
      <trkpt lat="46.768" lon="4.67097">
        <ele>383</ele>
        <time>2023-04-15T08:08:59Z</time>
      </trkpt>
      <trkpt lat="46.76875" lon="4.66908">
        <ele>394</ele>
        <time>2023-04-15T08:12:19Z</time>
      </trkpt>
      <trkpt lat="46.76938" lon="4.6687">
        <ele>393</ele>
        <time>2023-04-15T08:13:50Z</time>
      </trkpt>
      <trkpt lat="46.76981" lon="4.66809">
        <ele>389</ele>
        <time>2023-04-15T08:15:10Z</time>
      </trkpt>
      <trkpt lat="46.76995" lon="4.66785">
        <ele>388</ele>
        <time>2023-04-15T08:15:39Z</time>
      </trkpt>
      <trkpt lat="46.77023" lon="4.6675">
        <ele>388</ele>
        <time>2023-04-15T08:16:28Z</time>
      </trkpt>
      <trkpt lat="46.7704" lon="4.6672">
        <ele>387</ele>
        <time>2023-04-15T08:17:04Z</time>
      </trkpt>
      <trkpt lat="46.77047" lon="4.66703">
        <ele>387</ele>
        <time>2023-04-15T08:17:22Z</time>
      </trkpt>
      <trkpt lat="46.77056" lon="4.66664">
        <ele>386</ele>
        <time>2023-04-15T08:17:59Z</time>
      </trkpt>
      <trkpt lat="46.77067" lon="4.66644">
        <ele>386</ele>
        <time>2023-04-15T08:18:23Z</time>
      </trkpt>
      <trkpt lat="46.77203" lon="4.66449">
        <ele>391</ele>
        <time>2023-04-15T08:22:37Z</time>
      </trkpt>
      <trkpt lat="46.77225" lon="4.664">
        <ele>391</ele>
        <time>2023-04-15T08:23:31Z</time>
      </trkpt>
      <trkpt lat="46.7723" lon="4.66394">
        <ele>391</ele>
        <time>2023-04-15T08:23:39Z</time>
      </trkpt>
      <trkpt lat="46.77283" lon="4.66364">
        <ele>391</ele>
        <time>2023-04-15T08:24:55Z</time>
      </trkpt>
      <trkpt lat="46.77334" lon="4.66353">
        <ele>392</ele>
        <time>2023-04-15T08:26:04Z</time>
      </trkpt>
      <trkpt lat="46.77359" lon="4.66337">
        <ele>394</ele>
        <time>2023-04-15T08:26:40Z</time>
      </trkpt>
      <trkpt lat="46.77387" lon="4.66305">
        <ele>398</ele>
        <time>2023-04-15T08:27:28Z</time>
      </trkpt>
      <trkpt lat="46.77408" lon="4.66259">
        <ele>400</ele>
        <time>2023-04-15T08:28:18Z</time>
      </trkpt>
      <trkpt lat="46.77418" lon="4.66244">
        <ele>401</ele>
        <time>2023-04-15T08:28:37Z</time>
      </trkpt>
      <trkpt lat="46.77433" lon="4.66231">
        <ele>401</ele>
        <time>2023-04-15T08:29:01Z</time>
      </trkpt>
      <trkpt lat="46.77477" lon="4.66307">
        <ele>402</ele>
        <time>2023-04-15T08:30:32Z</time>
      </trkpt>
      <trkpt lat="46.77506" lon="4.6637">
        <ele>403</ele>
        <time>2023-04-15T08:31:41Z</time>
      </trkpt>
      <trkpt lat="46.77532" lon="4.66437">
        <ele>404</ele>
        <time>2023-04-15T08:32:51Z</time>
      </trkpt>
      <trkpt lat="46.77539" lon="4.6647">
        <ele>405</ele>
        <time>2023-04-15T08:33:23Z</time>
      </trkpt>
      <trkpt lat="46.77558" lon="4.66509">
        <ele>406</ele>
        <time>2023-04-15T08:34:07Z</time>
      </trkpt>
      <trkpt lat="46.77627" lon="4.66637">
        <ele>407</ele>
        <time>2023-04-15T08:36:36Z</time>
      </trkpt>
      <trkpt lat="46.77648" lon="4.66665">
        <ele>406</ele>
        <time>2023-04-15T08:37:14Z</time>
      </trkpt>
      <trkpt lat="46.77659" lon="4.66674">
        <ele>406</ele>
        <time>2023-04-15T08:37:30Z</time>
      </trkpt>
      <trkpt lat="46.77629" lon="4.66943">
        <ele>401</ele>
        <time>2023-04-15T08:41:39Z</time>
      </trkpt>
      <trkpt lat="46.77625" lon="4.67031">
        <ele>399</ele>
        <time>2023-04-15T08:43:00Z</time>
      </trkpt>
      <trkpt lat="46.77608" lon="4.67099">
        <ele>397</ele>
        <time>2023-04-15T08:44:06Z</time>
      </trkpt>
      <trkpt lat="46.77582" lon="4.6717">
        <ele>393</ele>
        <time>2023-04-15T08:45:20Z</time>
      </trkpt>
      <trkpt lat="46.77582" lon="4.67194">
        <ele>392</ele>
        <time>2023-04-15T08:45:42Z</time>
      </trkpt>
      <trkpt lat="46.77604" lon="4.67468">
        <ele>380</ele>
        <time>2023-04-15T08:49:54Z</time>
      </trkpt>
      <trkpt lat="46.77605" lon="4.67492">
        <ele>379</ele>
        <time>2023-04-15T08:50:16Z</time>
      </trkpt>
      <trkpt lat="46.77603" lon="4.67504">
        <ele>379</ele>
        <time>2023-04-15T08:50:27Z</time>
      </trkpt>
      <trkpt lat="46.77626" lon="4.6753">
        <ele>378</ele>
        <time>2023-04-15T08:51:06Z</time>
      </trkpt>
      <trkpt lat="46.77691" lon="4.67624">
        <ele>377</ele>
        <time>2023-04-15T08:53:08Z</time>
      </trkpt>
      <trkpt lat="46.77712" lon="4.67649">
        <ele>377</ele>
        <time>2023-04-15T08:53:44Z</time>
      </trkpt>
      <trkpt lat="46.7775" lon="4.67689">
        <ele>376</ele>
        <time>2023-04-15T08:54:47Z</time>
      </trkpt>
      <trkpt lat="46.77765" lon="4.67701">
        <ele>377</ele>
        <time>2023-04-15T08:55:10Z</time>
      </trkpt>
      <trkpt lat="46.77806" lon="4.67748">
        <ele>376</ele>
        <time>2023-04-15T08:56:19Z</time>
      </trkpt>
      <trkpt lat="46.7782" lon="4.67761">
        <ele>377</ele>
        <time>2023-04-15T08:56:41Z</time>
      </trkpt>
      <trkpt lat="46.77852" lon="4.67825">
        <ele>377</ele>
        <time>2023-04-15T08:57:54Z</time>
      </trkpt>
      <trkpt lat="46.7793" lon="4.67931">
        <ele>380</ele>
        <time>2023-04-15T09:00:16Z</time>
      </trkpt>
      <trkpt lat="46.77975" lon="4.67984">
        <ele>381</ele>
        <time>2023-04-15T09:01:33Z</time>
      </trkpt>
      <trkpt lat="46.77998" lon="4.68022">
        <ele>381</ele>
        <time>2023-04-15T09:02:19Z</time>
      </trkpt>
      <trkpt lat="46.78014" lon="4.68086">
        <ele>379</ele>
        <time>2023-04-15T09:03:22Z</time>
      </trkpt>
      <trkpt lat="46.78029" lon="4.68175">
        <ele>378</ele>
        <time>2023-04-15T09:04:45Z</time>
      </trkpt>
      <trkpt lat="46.78042" lon="4.68224">
        <ele>378</ele>
        <time>2023-04-15T09:05:33Z</time>
      </trkpt>
      <trkpt lat="46.78075" lon="4.68322">
        <ele>380</ele>
        <time>2023-04-15T09:07:13Z</time>
      </trkpt>
      <trkpt lat="46.78124" lon="4.68432">
        <ele>378</ele>
        <time>2023-04-15T09:09:13Z</time>
      </trkpt>
      <trkpt lat="46.78156" lon="4.68474">
        <ele>378</ele>
        <time>2023-04-15T09:10:10Z</time>
      </trkpt>
      <trkpt lat="46.78183" lon="4.68521">
        <ele>376</ele>
        <time>2023-04-15T09:11:07Z</time>
      </trkpt>
      <trkpt lat="46.78191" lon="4.68547">
        <ele>375</ele>
        <time>2023-04-15T09:11:33Z</time>
      </trkpt>
      <trkpt lat="46.78204" lon="4.68613">
        <ele>373</ele>
        <time>2023-04-15T09:12:35Z</time>
      </trkpt>
      <trkpt lat="46.78233" lon="4.688">
        <ele>366</ele>
        <time>2023-04-15T09:15:31Z</time>
      </trkpt>
      <trkpt lat="46.78237" lon="4.68857">
        <ele>363</ele>
        <time>2023-04-15T09:16:23Z</time>
      </trkpt>
      <trkpt lat="46.78236" lon="4.68887">
        <ele>361</ele>
        <time>2023-04-15T09:16:50Z</time>
      </trkpt>
      <trkpt lat="46.78238" lon="4.6889">
        <ele>361</ele>
        <time>2023-04-15T09:16:54Z</time>
      </trkpt>
      <trkpt lat="46.78247" lon="4.68886">
        <ele>361</ele>
        <time>2023-04-15T09:17:07Z</time>
      </trkpt>
      <trkpt lat="46.78289" lon="4.68701">
        <ele>358</ele>
        <time>2023-04-15T09:20:05Z</time>
      </trkpt>
      <trkpt lat="46.78292" lon="4.68672">
        <ele>356</ele>
        <time>2023-04-15T09:20:32Z</time>
      </trkpt>
      <trkpt lat="46.78288" lon="4.68543">
        <ele>352</ele>
        <time>2023-04-15T09:22:30Z</time>
      </trkpt>
      <trkpt lat="46.78266" lon="4.68385">
        <ele>349</ele>
        <time>2023-04-15T09:24:57Z</time>
      </trkpt>
      <trkpt lat="46.78255" lon="4.68241">
        <ele>343</ele>
        <time>2023-04-15T09:27:09Z</time>
      </trkpt>
      <trkpt lat="46.78262" lon="4.68191">
        <ele>341</ele>
        <time>2023-04-15T09:27:56Z</time>
      </trkpt>
      <trkpt lat="46.78272" lon="4.68162">
        <ele>338</ele>
        <time>2023-04-15T09:28:26Z</time>
      </trkpt>
      <trkpt lat="46.7828" lon="4.68149">
        <ele>337</ele>
        <time>2023-04-15T09:28:42Z</time>
      </trkpt>
      <trkpt lat="46.78358" lon="4.68196">
        <ele>325</ele>
        <time>2023-04-15T09:30:34Z</time>
      </trkpt>
      <trkpt lat="46.78445" lon="4.68237">
        <ele>314</ele>
        <time>2023-04-15T09:32:36Z</time>
      </trkpt>
      <trkpt lat="46.78583" lon="4.68333">
        <ele>304</ele>
        <time>2023-04-15T09:36:00Z</time>
      </trkpt>
      <trkpt lat="46.78595" lon="4.68342">
        <ele>303</ele>
        <time>2023-04-15T09:36:18Z</time>
      </trkpt>
      <trkpt lat="46.78638" lon="4.684">
        <ele>297</ele>
        <time>2023-04-15T09:37:36Z</time>
      </trkpt>
      <trkpt lat="46.78659" lon="4.68418">
        <ele>294</ele>
        <time>2023-04-15T09:38:09Z</time>
      </trkpt>
      <trkpt lat="46.78701" lon="4.68422">
        <ele>291</ele>
        <time>2023-04-15T09:39:05Z</time>
      </trkpt>
      <trkpt lat="46.7871" lon="4.68425">
        <ele>290</ele>
        <time>2023-04-15T09:39:17Z</time>
      </trkpt>
      <trkpt lat="46.78722" lon="4.68448">
        <ele>289</ele>
        <time>2023-04-15T09:39:44Z</time>
      </trkpt>
      <trkpt lat="46.78753" lon="4.68485">
        <ele>288</ele>
        <time>2023-04-15T09:40:37Z</time>
      </trkpt>
      <trkpt lat="46.78762" lon="4.68515">
        <ele>287</ele>
        <time>2023-04-15T09:41:07Z</time>
      </trkpt>
      <trkpt lat="46.78774" lon="4.68534">
        <ele>286</ele>
        <time>2023-04-15T09:41:31Z</time>
      </trkpt>
      <trkpt lat="46.78819" lon="4.68585">
        <ele>283</ele>
        <time>2023-04-15T09:42:47Z</time>
      </trkpt>
      <trkpt lat="46.78852" lon="4.68605">
        <ele>280</ele>
        <time>2023-04-15T09:43:34Z</time>
      </trkpt>
      <trkpt lat="46.78872" lon="4.68609">
        <ele>278</ele>
        <time>2023-04-15T09:44:01Z</time>
      </trkpt>
      <trkpt lat="46.78901" lon="4.68629">
        <ele>276</ele>
        <time>2023-04-15T09:44:44Z</time>
      </trkpt>
      <trkpt lat="46.78932" lon="4.68655">
        <ele>275</ele>
        <time>2023-04-15T09:45:32Z</time>
      </trkpt>
      <trkpt lat="46.78947" lon="4.68671">
        <ele>274</ele>
        <time>2023-04-15T09:45:57Z</time>
      </trkpt>
      <trkpt lat="46.78973" lon="4.68685">
        <ele>271</ele>
        <time>2023-04-15T09:46:34Z</time>
      </trkpt>
      <trkpt lat="46.7904" lon="4.68715">
        <ele>266</ele>
        <time>2023-04-15T09:48:07Z</time>
      </trkpt>
      <trkpt lat="46.79068" lon="4.68732">
        <ele>265</ele>
        <time>2023-04-15T09:48:48Z</time>
      </trkpt>
      <trkpt lat="46.79097" lon="4.68741">
        <ele>263</ele>
        <time>2023-04-15T09:49:27Z</time>
      </trkpt>
      <trkpt lat="46.79126" lon="4.68743">
        <ele>262</ele>
        <time>2023-04-15T09:50:06Z</time>
      </trkpt>
      <trkpt lat="46.79279" lon="4.68773">
        <ele>254</ele>
        <time>2023-04-15T09:53:32Z</time>
      </trkpt>
      <trkpt lat="46.79311" lon="4.68784">
        <ele>252</ele>
        <time>2023-04-15T09:54:16Z</time>
      </trkpt>
      <trkpt lat="46.79542" lon="4.68927">
        <ele>244</ele>
        <time>2023-04-15T09:59:51Z</time>
      </trkpt>
      <trkpt lat="46.79586" lon="4.68977">
        <ele>243</ele>
        <time>2023-04-15T10:01:05Z</time>
      </trkpt>
      <trkpt lat="46.79611" lon="4.69011">
        <ele>242</ele>
        <time>2023-04-15T10:01:51Z</time>
      </trkpt>
      <trkpt lat="46.79569" lon="4.69164">
        <ele>245</ele>
        <time>2023-04-15T10:04:21Z</time>
      </trkpt>
      <trkpt lat="46.79545" lon="4.69259">
        <ele>244</ele>
        <time>2023-04-15T10:05:54Z</time>
      </trkpt>
      <trkpt lat="46.79543" lon="4.69275">
        <ele>245</ele>
        <time>2023-04-15T10:06:09Z</time>
      </trkpt>
      <trkpt lat="46.79533" lon="4.69283">
        <ele>245</ele>
        <time>2023-04-15T10:06:24Z</time>
      </trkpt>
      <trkpt lat="46.79514" lon="4.69306">
        <ele>247</ele>
        <time>2023-04-15T10:06:57Z</time>
      </trkpt>
      <trkpt lat="46.79498" lon="4.69331">
        <ele>248</ele>
        <time>2023-04-15T10:07:28Z</time>
      </trkpt>
      <trkpt lat="46.79459" lon="4.69442">
        <ele>259</ele>
        <time>2023-04-15T10:09:22Z</time>
      </trkpt>
      <trkpt lat="46.79455" lon="4.69459">
        <ele>261</ele>
        <time>2023-04-15T10:09:38Z</time>
      </trkpt>
      <trkpt lat="46.79428" lon="4.69493">
        <ele>266</ele>
        <time>2023-04-15T10:10:26Z</time>
      </trkpt>
      <trkpt lat="46.79395" lon="4.69506">
        <ele>270</ele>
        <time>2023-04-15T10:11:12Z</time>
      </trkpt>
      <trkpt lat="46.79354" lon="4.69539">
        <ele>274</ele>
        <time>2023-04-15T10:12:14Z</time>
      </trkpt>
      <trkpt lat="46.79337" lon="4.69528">
        <ele>275</ele>
        <time>2023-04-15T10:12:39Z</time>
      </trkpt>
      <trkpt lat="46.79315" lon="4.69526">
        <ele>277</ele>
        <time>2023-04-15T10:13:08Z</time>
      </trkpt>
      <trkpt lat="46.79281" lon="4.69498">
        <ele>279</ele>
        <time>2023-04-15T10:14:00Z</time>
      </trkpt>
      <trkpt lat="46.7927" lon="4.69494">
        <ele>279</ele>
        <time>2023-04-15T10:14:15Z</time>
      </trkpt>
      <trkpt lat="46.79229" lon="4.69492">
        <ele>282</ele>
        <time>2023-04-15T10:15:10Z</time>
      </trkpt>
      <trkpt lat="46.79218" lon="4.69489">
        <ele>283</ele>
        <time>2023-04-15T10:15:25Z</time>
      </trkpt>
      <trkpt lat="46.79151" lon="4.69447">
        <ele>289</ele>
        <time>2023-04-15T10:17:02Z</time>
      </trkpt>
      <trkpt lat="46.79073" lon="4.69407">
        <ele>299</ele>
        <time>2023-04-15T10:18:53Z</time>
      </trkpt>
      <trkpt lat="46.79058" lon="4.69406">
        <ele>300</ele>
        <time>2023-04-15T10:19:13Z</time>
      </trkpt>
      <trkpt lat="46.7905" lon="4.69409">
        <ele>301</ele>
        <time>2023-04-15T10:19:24Z</time>
      </trkpt>
      <trkpt lat="46.7904" lon="4.69417">
        <ele>302</ele>
        <time>2023-04-15T10:19:39Z</time>
      </trkpt>
      <trkpt lat="46.78972" lon="4.69492">
        <ele>312</ele>
        <time>2023-04-15T10:21:33Z</time>
      </trkpt>
      <trkpt lat="46.78963" lon="4.69492">
        <ele>313</ele>
        <time>2023-04-15T10:21:45Z</time>
      </trkpt>
      <trkpt lat="46.78955" lon="4.6949">
        <ele>313</ele>
        <time>2023-04-15T10:21:56Z</time>
      </trkpt>
      <trkpt lat="46.78938" lon="4.69477">
        <ele>314</ele>
        <time>2023-04-15T10:22:21Z</time>
      </trkpt>
      <trkpt lat="46.78924" lon="4.6947">
        <ele>315</ele>
        <time>2023-04-15T10:22:41Z</time>
      </trkpt>
      <trkpt lat="46.78907" lon="4.69466">
        <ele>316</ele>
        <time>2023-04-15T10:23:04Z</time>
      </trkpt>
      <trkpt lat="46.78814" lon="4.69456">
        <ele>321</ele>
        <time>2023-04-15T10:25:08Z</time>
      </trkpt>
      <trkpt lat="46.78797" lon="4.6945">
        <ele>322</ele>
        <time>2023-04-15T10:25:32Z</time>
      </trkpt>
      <trkpt lat="46.78697" lon="4.69383">
        <ele>322</ele>
        <time>2023-04-15T10:27:58Z</time>
      </trkpt>
      <trkpt lat="46.78665" lon="4.69366">
        <ele>323</ele>
        <time>2023-04-15T10:28:44Z</time>
      </trkpt>
      <trkpt lat="46.78613" lon="4.69357">
        <ele>325</ele>
        <time>2023-04-15T10:29:54Z</time>
      </trkpt>
      <trkpt lat="46.7859" lon="4.69357">
        <ele>326</ele>
        <time>2023-04-15T10:30:24Z</time>
      </trkpt>
      <trkpt lat="46.78557" lon="4.69345">
        <ele>327</ele>
        <time>2023-04-15T10:31:10Z</time>
      </trkpt>
      <trkpt lat="46.78496" lon="4.69315">
        <ele>331</ele>
        <time>2023-04-15T10:32:36Z</time>
      </trkpt>
      <trkpt lat="46.78456" lon="4.69305">
        <ele>338</ele>
        <time>2023-04-15T10:33:30Z</time>
      </trkpt>
      <trkpt lat="46.78446" lon="4.69298">
        <ele>341</ele>
        <time>2023-04-15T10:33:45Z</time>
      </trkpt>
      <trkpt lat="46.7839" lon="4.69141">
        <ele>349</ele>
        <time>2023-04-15T10:36:26Z</time>
      </trkpt>
      <trkpt lat="46.78378" lon="4.69114">
        <ele>350</ele>
        <time>2023-04-15T10:36:56Z</time>
      </trkpt>
      <trkpt lat="46.78363" lon="4.69098">
        <ele>352</ele>
        <time>2023-04-15T10:37:21Z</time>
      </trkpt>
      <trkpt lat="46.78341" lon="4.6908">
        <ele>354</ele>
        <time>2023-04-15T10:37:54Z</time>
      </trkpt>
      <trkpt lat="46.78303" lon="4.69053">
        <ele>355</ele>
        <time>2023-04-15T10:38:51Z</time>
      </trkpt>
      <trkpt lat="46.78266" lon="4.69019">
        <ele>358</ele>
        <time>2023-04-15T10:39:49Z</time>
      </trkpt>
      <trkpt lat="46.7824" lon="4.68991">
        <ele>360</ele>
        <time>2023-04-15T10:40:32Z</time>
      </trkpt>
      <trkpt lat="46.7822" lon="4.68992">
        <ele>360</ele>
        <time>2023-04-15T10:40:59Z</time>
      </trkpt>
      <trkpt lat="46.78228" lon="4.69036">
        <ele>359</ele>
        <time>2023-04-15T10:41:40Z</time>
      </trkpt>
      <trkpt lat="46.78236" lon="4.6906">
        <ele>359</ele>
        <time>2023-04-15T10:42:05Z</time>
      </trkpt>
      <trkpt lat="46.78255" lon="4.69113">
        <ele>358</ele>
        <time>2023-04-15T10:43:00Z</time>
      </trkpt>
      <trkpt lat="46.78278" lon="4.69157">
        <ele>356</ele>
        <time>2023-04-15T10:43:50Z</time>
      </trkpt>
      <trkpt lat="46.78284" lon="4.69183">
        <ele>356</ele>
        <time>2023-04-15T10:44:15Z</time>
      </trkpt>
      <trkpt lat="46.78283" lon="4.6942">
        <ele>360</ele>
        <time>2023-04-15T10:47:52Z</time>
      </trkpt>
      <trkpt lat="46.78278" lon="4.69454">
        <ele>364</ele>
        <time>2023-04-15T10:48:24Z</time>
      </trkpt>
      <trkpt lat="46.78268" lon="4.69477">
        <ele>368</ele>
        <time>2023-04-15T10:48:48Z</time>
      </trkpt>
      <trkpt lat="46.78163" lon="4.69554">
        <ele>379</ele>
        <time>2023-04-15T10:51:25Z</time>
      </trkpt>
      <trkpt lat="46.78155" lon="4.69565">
        <ele>380</ele>
        <time>2023-04-15T10:51:40Z</time>
      </trkpt>
      <trkpt lat="46.78153" lon="4.69573">
        <ele>381</ele>
        <time>2023-04-15T10:51:48Z</time>
      </trkpt>
      <trkpt lat="46.78158" lon="4.69593">
        <ele>385</ele>
        <time>2023-04-15T10:52:07Z</time>
      </trkpt>
      <trkpt lat="46.78178" lon="4.69599">
        <ele>387</ele>
        <time>2023-04-15T10:52:34Z</time>
      </trkpt>
      <trkpt lat="46.78242" lon="4.69603">
        <ele>388</ele>
        <time>2023-04-15T10:54:00Z</time>
      </trkpt>
      <trkpt lat="46.78251" lon="4.69606">
        <ele>389</ele>
        <time>2023-04-15T10:54:12Z</time>
      </trkpt>
      <trkpt lat="46.78257" lon="4.69617">
        <ele>390</ele>
        <time>2023-04-15T10:54:25Z</time>
      </trkpt>
      <trkpt lat="46.78258" lon="4.69668">
        <ele>396</ele>
        <time>2023-04-15T10:55:12Z</time>
      </trkpt>
      <trkpt lat="46.78247" lon="4.69713">
        <ele>401</ele>
        <time>2023-04-15T10:55:55Z</time>
      </trkpt>
      <trkpt lat="46.78233" lon="4.69757">
        <ele>404</ele>
        <time>2023-04-15T10:56:40Z</time>
      </trkpt>
      <trkpt lat="46.78225" lon="4.69775">
        <ele>406</ele>
        <time>2023-04-15T10:56:59Z</time>
      </trkpt>
      <trkpt lat="46.78187" lon="4.69797">
        <ele>407</ele>
        <time>2023-04-15T10:57:54Z</time>
      </trkpt>
      <trkpt lat="46.7812" lon="4.6985">
        <ele>411</ele>
        <time>2023-04-15T10:59:36Z</time>
      </trkpt>
      <trkpt lat="46.78107" lon="4.69857">
        <ele>412</ele>
        <time>2023-04-15T10:59:54Z</time>
      </trkpt>
      <trkpt lat="46.78057" lon="4.69867">
        <ele>410</ele>
        <time>2023-04-15T11:01:01Z</time>
      </trkpt>
      <trkpt lat="46.78004" lon="4.69872">
        <ele>407</ele>
        <time>2023-04-15T11:02:12Z</time>
      </trkpt>
      <trkpt lat="46.77984" lon="4.69886">
        <ele>407</ele>
        <time>2023-04-15T11:02:42Z</time>
      </trkpt>
      <trkpt lat="46.77967" lon="4.69909">
        <ele>407</ele>
        <time>2023-04-15T11:03:13Z</time>
      </trkpt>
      <trkpt lat="46.77968" lon="4.69928">
        <ele>409</ele>
        <time>2023-04-15T11:03:30Z</time>
      </trkpt>
      <trkpt lat="46.77974" lon="4.69955">
        <ele>410</ele>
        <time>2023-04-15T11:03:56Z</time>
      </trkpt>
      <trkpt lat="46.7799" lon="4.69979">
        <ele>413</ele>
        <time>2023-04-15T11:04:27Z</time>
      </trkpt>
      <trkpt lat="46.77993" lon="4.69997">
        <ele>414</ele>
        <time>2023-04-15T11:04:44Z</time>
      </trkpt>
      <trkpt lat="46.78002" lon="4.69984">
        <ele>415</ele>
        <time>2023-04-15T11:05:01Z</time>
      </trkpt>
      <trkpt lat="46.78009" lon="4.69982">
        <ele>416</ele>
        <time>2023-04-15T11:05:10Z</time>
      </trkpt>
      <trkpt lat="46.78034" lon="4.69958">
        <ele>419</ele>
        <time>2023-04-15T11:05:50Z</time>
      </trkpt>
      <trkpt lat="46.78053" lon="4.69946">
        <ele>421</ele>
        <time>2023-04-15T11:06:18Z</time>
      </trkpt>
      <trkpt lat="46.78068" lon="4.69941">
        <ele>422</ele>
        <time>2023-04-15T11:06:38Z</time>
      </trkpt>
      <trkpt lat="46.78166" lon="4.69964">
        <ele>428</ele>
        <time>2023-04-15T11:08:51Z</time>
      </trkpt>
      <trkpt lat="46.78208" lon="4.69978">
        <ele>430</ele>
        <time>2023-04-15T11:09:48Z</time>
      </trkpt>
      <trkpt lat="46.78363" lon="4.70082">
        <ele>440</ele>
        <time>2023-04-15T11:13:36Z</time>
      </trkpt>
      <trkpt lat="46.78389" lon="4.70106">
        <ele>441</ele>
        <time>2023-04-15T11:14:17Z</time>
      </trkpt>
      <trkpt lat="46.78429" lon="4.70147">
        <ele>442</ele>
        <time>2023-04-15T11:15:22Z</time>
      </trkpt>
      <trkpt lat="46.78443" lon="4.70169">
        <ele>442</ele>
        <time>2023-04-15T11:15:49Z</time>
      </trkpt>
      <trkpt lat="46.78461" lon="4.70212">
        <ele>440</ele>
        <time>2023-04-15T11:16:35Z</time>
      </trkpt>
      <trkpt lat="46.78474" lon="4.70251">
        <ele>440</ele>
        <time>2023-04-15T11:17:15Z</time>
      </trkpt>
      <trkpt lat="46.78474" lon="4.70262">
        <ele>439</ele>
        <time>2023-04-15T11:17:25Z</time>
      </trkpt>
      <trkpt lat="46.7849" lon="4.70309">
        <ele>438</ele>
        <time>2023-04-15T11:18:13Z</time>
      </trkpt>
      <trkpt lat="46.78545" lon="4.70428">
        <ele>435</ele>
        <time>2023-04-15T11:20:24Z</time>
      </trkpt>
      <trkpt lat="46.78553" lon="4.70479">
        <ele>435</ele>
        <time>2023-04-15T11:21:12Z</time>
      </trkpt>
      <trkpt lat="46.7859" lon="4.706">
        <ele>435</ele>
        <time>2023-04-15T11:23:13Z</time>
      </trkpt>
      <trkpt lat="46.78588" lon="4.70616">
        <ele>435</ele>
        <time>2023-04-15T11:23:28Z</time>
      </trkpt>
      <trkpt lat="46.7859" lon="4.70639">
        <ele>435</ele>
        <time>2023-04-15T11:23:49Z</time>
      </trkpt>
      <trkpt lat="46.78595" lon="4.70656">
        <ele>435</ele>
        <time>2023-04-15T11:24:06Z</time>
      </trkpt>
      <trkpt lat="46.78673" lon="4.70695">
        <ele>433</ele>
        <time>2023-04-15T11:25:56Z</time>
      </trkpt>
      <trkpt lat="46.78711" lon="4.70704">
        <ele>432</ele>
        <time>2023-04-15T11:26:48Z</time>
      </trkpt>
      <trkpt lat="46.78729" lon="4.70711">
        <ele>431</ele>
        <time>2023-04-15T11:27:12Z</time>
      </trkpt>
      <trkpt lat="46.78744" lon="4.70719">
        <ele>430</ele>
        <time>2023-04-15T11:27:34Z</time>
      </trkpt>
      <trkpt lat="46.7875" lon="4.70726">
        <ele>430</ele>
        <time>2023-04-15T11:27:44Z</time>
      </trkpt>
      <trkpt lat="46.78772" lon="4.70724">
        <ele>428</ele>
        <time>2023-04-15T11:28:13Z</time>
      </trkpt>
      <trkpt lat="46.78753" lon="4.71233">
        <ele>417</ele>
        <time>2023-04-15T11:35:59Z</time>
      </trkpt>
      <trkpt lat="46.78768" lon="4.71312">
        <ele>412</ele>
        <time>2023-04-15T11:37:14Z</time>
      </trkpt>
      <trkpt lat="46.78786" lon="4.71368">
        <ele>407</ele>
        <time>2023-04-15T11:38:11Z</time>
      </trkpt>
      <trkpt lat="46.78834" lon="4.71496">
        <ele>395</ele>
        <time>2023-04-15T11:40:24Z</time>
      </trkpt>
      <trkpt lat="46.78837" lon="4.71524">
        <ele>392</ele>
        <time>2023-04-15T11:40:50Z</time>
      </trkpt>
      <trkpt lat="46.78824" lon="4.71668">
        <ele>388</ele>
        <time>2023-04-15T11:43:03Z</time>
      </trkpt>
      <trkpt lat="46.78833" lon="4.71748">
        <ele>384</ele>
        <time>2023-04-15T11:44:17Z</time>
      </trkpt>
      <trkpt lat="46.78839" lon="4.71781">
        <ele>384</ele>
        <time>2023-04-15T11:44:48Z</time>
      </trkpt>
      <trkpt lat="46.78809" lon="4.72188">
        <ele>381</ele>
        <time>2023-04-15T11:51:02Z</time>
      </trkpt>
      <trkpt lat="46.7882" lon="4.72202">
        <ele>380</ele>
        <time>2023-04-15T11:51:21Z</time>
      </trkpt>
      <trkpt lat="46.78847" lon="4.72332">
        <ele>376</ele>
        <time>2023-04-15T11:53:25Z</time>
      </trkpt>
      <trkpt lat="46.78863" lon="4.72382">
        <ele>375</ele>
        <time>2023-04-15T11:54:16Z</time>
      </trkpt>
      <trkpt lat="46.79029" lon="4.72686">
        <ele>360</ele>
        <time>2023-04-15T12:00:11Z</time>
      </trkpt>
      <trkpt lat="46.79057" lon="4.72753">
        <ele>355</ele>
        <time>2023-04-15T12:01:23Z</time>
      </trkpt>
      <trkpt lat="46.79066" lon="4.72782">
        <ele>354</ele>
        <time>2023-04-15T12:01:52Z</time>
      </trkpt>
      <trkpt lat="46.79088" lon="4.72817">
        <ele>353</ele>
        <time>2023-04-15T12:02:35Z</time>
      </trkpt>
      <trkpt lat="46.79116" lon="4.72848">
        <ele>352</ele>
        <time>2023-04-15T12:03:22Z</time>
      </trkpt>
      <trkpt lat="46.79137" lon="4.72889">
        <ele>352</ele>
        <time>2023-04-15T12:04:09Z</time>
      </trkpt>
      <trkpt lat="46.79148" lon="4.72942">
        <ele>352</ele>
        <time>2023-04-15T12:05:00Z</time>
      </trkpt>
      <trkpt lat="46.79163" lon="4.72979">
        <ele>353</ele>
        <time>2023-04-15T12:05:39Z</time>
      </trkpt>
      <trkpt lat="46.79174" lon="4.73034">
        <ele>352</ele>
        <time>2023-04-15T12:06:31Z</time>
      </trkpt>
      <trkpt lat="46.79203" lon="4.73081">
        <ele>352</ele>
        <time>2023-04-15T12:07:29Z</time>
      </trkpt>
      <trkpt lat="46.79232" lon="4.7311">
        <ele>352</ele>
        <time>2023-04-15T12:08:16Z</time>
      </trkpt>
      <trkpt lat="46.79241" lon="4.73122">
        <ele>352</ele>
        <time>2023-04-15T12:08:32Z</time>
      </trkpt>
      <trkpt lat="46.7929" lon="4.73228">
        <ele>351</ele>
        <time>2023-04-15T12:10:29Z</time>
      </trkpt>
      <trkpt lat="46.79294" lon="4.73247">
        <ele>351</ele>
        <time>2023-04-15T12:10:47Z</time>
      </trkpt>
      <trkpt lat="46.79294" lon="4.73315">
        <ele>350</ele>
        <time>2023-04-15T12:11:49Z</time>
      </trkpt>
      <trkpt lat="46.79296" lon="4.73331">
        <ele>350</ele>
        <time>2023-04-15T12:12:04Z</time>
      </trkpt>
      <trkpt lat="46.79302" lon="4.73349">
        <ele>349</ele>
        <time>2023-04-15T12:12:23Z</time>
      </trkpt>
      <trkpt lat="46.79331" lon="4.73399">
        <ele>347</ele>
        <time>2023-04-15T12:13:22Z</time>
      </trkpt>
      <trkpt lat="46.79348" lon="4.73419">
        <ele>345</ele>
        <time>2023-04-15T12:13:52Z</time>
      </trkpt>
      <trkpt lat="46.79426" lon="4.73493">
        <ele>337</ele>
        <time>2023-04-15T12:15:56Z</time>
      </trkpt>
      <trkpt lat="46.79462" lon="4.73553">
        <ele>327</ele>
        <time>2023-04-15T12:17:09Z</time>
      </trkpt>
      <trkpt lat="46.79478" lon="4.73585">
        <ele>326</ele>
        <time>2023-04-15T12:17:45Z</time>
      </trkpt>
      <trkpt lat="46.7948" lon="4.73598">
        <ele>326</ele>
        <time>2023-04-15T12:17:57Z</time>
      </trkpt>
      <trkpt lat="46.7948" lon="4.73627">
        <ele>326</ele>
        <time>2023-04-15T12:18:23Z</time>
      </trkpt>
      <trkpt lat="46.79465" lon="4.73723">
        <ele>325</ele>
        <time>2023-04-15T12:19:53Z</time>
      </trkpt>
      <trkpt lat="46.79442" lon="4.73786">
        <ele>324</ele>
        <time>2023-04-15T12:20:59Z</time>
      </trkpt>
      <trkpt lat="46.79431" lon="4.73832">
        <ele>325</ele>
        <time>2023-04-15T12:21:43Z</time>
      </trkpt>
      <trkpt lat="46.79427" lon="4.73878">
        <ele>323</ele>
        <time>2023-04-15T12:22:25Z</time>
      </trkpt>
      <trkpt lat="46.79397" lon="4.73895">
        <ele>322</ele>
        <time>2023-04-15T12:23:08Z</time>
      </trkpt>
      <trkpt lat="46.7938" lon="4.73895">
        <ele>322</ele>
        <time>2023-04-15T12:23:31Z</time>
      </trkpt>
      <trkpt lat="46.79357" lon="4.739">
        <ele>321</ele>
        <time>2023-04-15T12:24:02Z</time>
      </trkpt>
      <trkpt lat="46.79345" lon="4.73912">
        <ele>321</ele>
        <time>2023-04-15T12:24:22Z</time>
      </trkpt>
      <trkpt lat="46.79334" lon="4.73931">
        <ele>321</ele>
        <time>2023-04-15T12:24:44Z</time>
      </trkpt>
      <trkpt lat="46.79327" lon="4.73952">
        <ele>320</ele>
        <time>2023-04-15T12:25:06Z</time>
      </trkpt>
      <trkpt lat="46.79312" lon="4.7402">
        <ele>317</ele>
        <time>2023-04-15T12:26:11Z</time>
      </trkpt>
      <trkpt lat="46.79296" lon="4.74048">
        <ele>315</ele>
        <time>2023-04-15T12:26:44Z</time>
      </trkpt>
      <trkpt lat="46.79278" lon="4.74107">
        <ele>312</ele>
        <time>2023-04-15T12:27:43Z</time>
      </trkpt>
      <trkpt lat="46.7927" lon="4.74115">
        <ele>311</ele>
        <time>2023-04-15T12:27:56Z</time>
      </trkpt>
      <trkpt lat="46.79264" lon="4.74129">
        <ele>311</ele>
        <time>2023-04-15T12:28:11Z</time>
      </trkpt>
      <trkpt lat="46.79237" lon="4.74144">
        <ele>308</ele>
        <time>2023-04-15T12:28:50Z</time>
      </trkpt>
      <trkpt lat="46.79216" lon="4.74151">
        <ele>307</ele>
        <time>2023-04-15T12:29:19Z</time>
      </trkpt>
      <trkpt lat="46.79205" lon="4.74161">
        <ele>306</ele>
        <time>2023-04-15T12:29:36Z</time>
      </trkpt>
      <trkpt lat="46.79191" lon="4.74167">
        <ele>305</ele>
        <time>2023-04-15T12:29:55Z</time>
      </trkpt>
      <trkpt lat="46.79096" lon="4.74228">
        <ele>293</ele>
        <time>2023-04-15T12:32:14Z</time>
      </trkpt>
      <trkpt lat="46.79083" lon="4.74232">
        <ele>292</ele>
        <time>2023-04-15T12:32:31Z</time>
      </trkpt>
      <trkpt lat="46.79058" lon="4.7425">
        <ele>287</ele>
        <time>2023-04-15T12:33:09Z</time>
      </trkpt>
      <trkpt lat="46.78964" lon="4.74301">
        <ele>268</ele>
        <time>2023-04-15T12:35:22Z</time>
      </trkpt>
      <trkpt lat="46.78939" lon="4.74318">
        <ele>263</ele>
        <time>2023-04-15T12:35:59Z</time>
      </trkpt>
      <trkpt lat="46.7895" lon="4.74368">
        <ele>262</ele>
        <time>2023-04-15T12:36:47Z</time>
      </trkpt>
      <trkpt lat="46.78948" lon="4.74378">
        <ele>261</ele>
        <time>2023-04-15T12:36:57Z</time>
      </trkpt>
      <trkpt lat="46.78943" lon="4.7438">
        <ele>260</ele>
        <time>2023-04-15T12:37:04Z</time>
      </trkpt>
      <trkpt lat="46.78924" lon="4.74378">
        <ele>257</ele>
        <time>2023-04-15T12:37:29Z</time>
      </trkpt>
      <trkpt lat="46.78921" lon="4.74389">
        <ele>256</ele>
        <time>2023-04-15T12:37:40Z</time>
      </trkpt>
      <trkpt lat="46.78927" lon="4.74409">
        <ele>256</ele>
        <time>2023-04-15T12:38:00Z</time>
      </trkpt>
      <trkpt lat="46.78926" lon="4.74415">
        <ele>255</ele>
        <time>2023-04-15T12:38:06Z</time>
      </trkpt>
      <trkpt lat="46.78918" lon="4.74421">
        <ele>254</ele>
        <time>2023-04-15T12:38:18Z</time>
      </trkpt>
      <trkpt lat="46.7889" lon="4.74423">
        <ele>251</ele>
        <time>2023-04-15T12:38:55Z</time>
      </trkpt>
      <trkpt lat="46.78882" lon="4.74438">
        <ele>249</ele>
        <time>2023-04-15T12:39:12Z</time>
      </trkpt>
      <trkpt lat="46.78873" lon="4.74442">
        <ele>248</ele>
        <time>2023-04-15T12:39:25Z</time>
      </trkpt>
      <trkpt lat="46.7886" lon="4.74442">
        <ele>247</ele>
        <time>2023-04-15T12:39:42Z</time>
      </trkpt>
      <trkpt lat="46.78855" lon="4.74434">
        <ele>247</ele>
        <time>2023-04-15T12:39:52Z</time>
      </trkpt>
      <trkpt lat="46.78843" lon="4.74423">
        <ele>247</ele>
        <time>2023-04-15T12:40:11Z</time>
      </trkpt>
      <trkpt lat="46.78805" lon="4.7441">
        <ele>243</ele>
        <time>2023-04-15T12:41:03Z</time>
      </trkpt>
      <trkpt lat="46.78798" lon="4.74405">
        <ele>242</ele>
        <time>2023-04-15T12:41:14Z</time>
      </trkpt>
      <trkpt lat="46.78743" lon="4.74339">
        <ele>237</ele>
        <time>2023-04-15T12:42:49Z</time>
      </trkpt>
      <trkpt lat="46.78727" lon="4.74308">
        <ele>235</ele>
        <time>2023-04-15T12:43:24Z</time>
      </trkpt>
      <trkpt lat="46.78711" lon="4.74268">
        <ele>233</ele>
        <time>2023-04-15T12:44:06Z</time>
      </trkpt>
      <trkpt lat="46.78703" lon="4.74228">
        <ele>232</ele>
        <time>2023-04-15T12:44:44Z</time>
      </trkpt>
      <trkpt lat="46.78684" lon="4.74155">
        <ele>230</ele>
        <time>2023-04-15T12:45:56Z</time>
      </trkpt>
      <trkpt lat="46.78632" lon="4.74079">
        <ele>230</ele>
        <time>2023-04-15T12:47:34Z</time>
      </trkpt>
      <trkpt lat="46.7862" lon="4.74049">
        <ele>230</ele>
        <time>2023-04-15T12:48:06Z</time>
      </trkpt>
      <trkpt lat="46.78618" lon="4.74013">
        <ele>231</ele>
        <time>2023-04-15T12:48:39Z</time>
      </trkpt>
      <trkpt lat="46.78605" lon="4.73911">
        <ele>233</ele>
        <time>2023-04-15T12:50:13Z</time>
      </trkpt>
      <trkpt lat="46.78571" lon="4.73814">
        <ele>232</ele>
        <time>2023-04-15T12:51:53Z</time>
      </trkpt>
      <trkpt lat="46.78552" lon="4.73796">
        <ele>231</ele>
        <time>2023-04-15T12:52:23Z</time>
      </trkpt>
      <trkpt lat="46.78542" lon="4.73816">
        <ele>230</ele>
        <time>2023-04-15T12:52:46Z</time>
      </trkpt>
      <trkpt lat="46.78533" lon="4.73818">
        <ele>230</ele>
        <time>2023-04-15T12:52:58Z</time>
      </trkpt>
      <trkpt lat="46.78475" lon="4.73789">
        <ele>229</ele>
        <time>2023-04-15T12:54:20Z</time>
      </trkpt>
      <trkpt lat="46.78455" lon="4.73855">
        <ele>228</ele>
        <time>2023-04-15T12:55:26Z</time>
      </trkpt>
      <trkpt lat="46.78437" lon="4.73888">
        <ele>227</ele>
        <time>2023-04-15T12:56:04Z</time>
      </trkpt>
      <trkpt lat="46.78428" lon="4.73892">
        <ele>227</ele>
        <time>2023-04-15T12:56:17Z</time>
      </trkpt>
      <trkpt lat="46.78421" lon="4.739">
        <ele>226</ele>
        <time>2023-04-15T12:56:29Z</time>
      </trkpt>
      <trkpt lat="46.78403" lon="4.73985">
        <ele>226</ele>
        <time>2023-04-15T12:57:50Z</time>
      </trkpt>
      <trkpt lat="46.78396" lon="4.74006">
        <ele>226</ele>
        <time>2023-04-15T12:58:11Z</time>
      </trkpt>
      <trkpt lat="46.78373" lon="4.74107">
        <ele>225</ele>
        <time>2023-04-15T12:59:49Z</time>
      </trkpt>
      <trkpt lat="46.78358" lon="4.7416">
        <ele>224</ele>
        <time>2023-04-15T13:00:41Z</time>
      </trkpt>
      <trkpt lat="46.78353" lon="4.74166">
        <ele>224</ele>
        <time>2023-04-15T13:00:50Z</time>
      </trkpt>
      <trkpt lat="46.78356" lon="4.74173">
        <ele>224</ele>
        <time>2023-04-15T13:00:57Z</time>
      </trkpt>
      <trkpt lat="46.78351" lon="4.74179">
        <ele>224</ele>
        <time>2023-04-15T13:01:06Z</time>
      </trkpt>
      <trkpt lat="46.78341" lon="4.74207">
        <ele>224</ele>
        <time>2023-04-15T13:01:35Z</time>
      </trkpt>
      <trkpt lat="46.78316" lon="4.74322">
        <ele>225</ele>
        <time>2023-04-15T13:03:25Z</time>
      </trkpt>
      <trkpt lat="46.78262" lon="4.74467">
        <ele>222</ele>
        <time>2023-04-15T13:05:56Z</time>
      </trkpt>
      <trkpt lat="46.78268" lon="4.74472">
        <ele>222</ele>
        <time>2023-04-15T13:06:05Z</time>
      </trkpt>
      <trkpt lat="46.78275" lon="4.74474">
        <ele>222</ele>
        <time>2023-04-15T13:06:15Z</time>
      </trkpt>
      <trkpt lat="46.78277" lon="4.74478">
        <ele>222</ele>
        <time>2023-04-15T13:06:19Z</time>
      </trkpt>
      <trkpt lat="46.7829" lon="4.74483">
        <ele>222</ele>
        <time>2023-04-15T13:06:37Z</time>
      </trkpt>
      <trkpt lat="46.78308" lon="4.74495">
        <ele>221</ele>
        <time>2023-04-15T13:07:03Z</time>
      </trkpt>
      <trkpt lat="46.78296" lon="4.74526">
        <ele>221</ele>
        <time>2023-04-15T13:07:36Z</time>
      </trkpt>
    </trkseg>
  </trk>
</gpx>